createdAt,value
2018-09-09T00:00:57.525Z,21.8
2018-09-09T00:02:02.108Z,21.8
2018-09-09T00:03:16.588Z,21.8
2018-09-09T00:04:16.517Z,21.8
2018-09-09T00:05:20.248Z,21.8
2018-09-09T00:06:17.652Z,21.8
2018-09-09T00:07:15.035Z,21.8
2018-09-09T00:08:16.677Z,21.8
2018-09-09T00:09:24.196Z,21.8
2018-09-09T00:10:22.267Z,21.7
2018-09-09T00:11:19.770Z,21.7
2018-09-09T00:12:20.016Z,21.7
2018-09-09T00:13:14.630Z,21.7
2018-09-09T00:14:25.459Z,21.7
2018-09-09T00:15:28.894Z,21.8
2018-09-09T00:16:34.154Z,21.7
2018-09-09T00:17:31.910Z,21.8
2018-09-09T00:18:32.880Z,21.7
2018-09-09T00:19:33.778Z,21.7
2018-09-09T00:20:43.984Z,21.7
2018-09-09T00:21:41.885Z,21.7
2018-09-09T00:22:47.691Z,21.7
2018-09-09T00:23:47.177Z,21.7
2018-09-09T00:24:45.168Z,21.7
2018-09-09T00:26:03.310Z,21.7
2018-09-09T00:26:59.866Z,21.7
2018-09-09T00:28:10.140Z,21.7
2018-09-09T00:29:08.828Z,21.7
2018-09-09T00:30:06.683Z,21.7
2018-09-09T00:31:12.725Z,21.7
2018-09-09T00:32:10.430Z,21.7
2018-09-09T00:33:10.171Z,21.7
2018-09-09T00:34:09.368Z,21.7
2018-09-09T00:35:08.001Z,21.7
2018-09-09T00:36:02.909Z,21.7
2018-09-09T00:37:16.300Z,21.7
2018-09-09T00:38:12.911Z,21.6
2018-09-09T00:39:11.004Z,21.7
2018-09-09T00:40:11.228Z,21.6
2018-09-09T00:41:06.198Z,21.6
2018-09-09T00:42:04.838Z,21.6
2018-09-09T00:43:12.336Z,21.6
2018-09-09T00:44:11.039Z,21.6
2018-09-09T00:45:09.178Z,21.6
2018-09-09T00:46:07.105Z,21.6
2018-09-09T00:47:05.424Z,21.6
2018-09-09T00:48:03.101Z,21.6
2018-09-09T00:49:02.002Z,21.6
2018-09-09T00:50:00.944Z,21.6
2018-09-09T00:51:11.159Z,21.6
2018-09-09T00:52:07.388Z,21.6
2018-09-09T00:53:07.306Z,21.6
2018-09-09T00:54:05.438Z,21.6
2018-09-09T00:55:06.747Z,21.6
2018-09-09T00:56:04.682Z,21.6
2018-09-09T00:57:06.057Z,21.6
2018-09-09T00:58:04.855Z,21.6
2018-09-09T00:59:00.562Z,21.5
2018-09-09T01:00:02.953Z,21.6
2018-09-09T01:01:06.082Z,21.5
2018-09-09T01:02:06.767Z,21.6
2018-09-09T01:03:01.392Z,21.5
2018-09-09T01:04:06.905Z,21.6
2018-09-09T01:05:02.091Z,21.5
2018-09-09T01:06:12.300Z,21.5
2018-09-09T01:07:35.270Z,21.5
2018-09-09T01:08:32.096Z,21.5
2018-09-09T01:09:30.000Z,21.5
2018-09-09T01:10:28.671Z,21.5
2018-09-09T01:11:36.163Z,21.5
2018-09-09T01:12:31.163Z,21.5
2018-09-09T01:13:31.251Z,21.5
2018-09-09T01:14:33.345Z,21.5
2018-09-09T01:15:31.264Z,21.5
2018-09-09T01:16:33.469Z,21.5
2018-09-09T01:17:28.916Z,21.5
2018-09-09T01:18:26.142Z,21.5
2018-09-09T01:19:28.758Z,21.5
2018-09-09T01:20:42.375Z,21.5
2018-09-09T01:21:42.648Z,21.5
2018-09-09T01:22:42.323Z,21.5
2018-09-09T01:23:50.942Z,21.5
2018-09-09T01:24:49.386Z,21.5
2018-09-09T01:25:54.975Z,21.5
2018-09-09T01:26:57.812Z,21.5
2018-09-09T01:27:56.057Z,21.5
2018-09-09T01:28:58.507Z,21.5
2018-09-09T01:29:57.897Z,21.4
2018-09-09T01:31:09.443Z,21.4
2018-09-09T01:32:10.086Z,21.4
2018-09-09T01:33:10.178Z,21.4
2018-09-09T01:34:10.016Z,21.4
2018-09-09T01:35:08.154Z,21.5
2018-09-09T01:36:07.701Z,21.4
2018-09-09T01:37:07.494Z,21.4
2018-09-09T01:38:06.462Z,21.4
2018-09-09T01:39:08.468Z,21.4
2018-09-09T01:40:02.877Z,21.4
2018-09-09T01:41:15.556Z,21.4
2018-09-09T01:42:14.005Z,21.4
2018-09-09T01:42:49.617Z,21.4
2018-09-09T01:43:49.336Z,21.4
2018-09-09T01:44:49.264Z,21.4
2018-09-09T01:45:47.131Z,21.4
2018-09-09T01:46:43.473Z,21.4
2018-09-09T01:47:43.926Z,21.4
2018-09-09T01:48:46.947Z,21.4
2018-09-09T01:49:45.784Z,21.4
2018-09-09T01:50:58.830Z,21.4
2018-09-09T01:52:09.708Z,21.4
2018-09-09T01:53:04.869Z,21.4
2018-09-09T01:54:05.620Z,21.4
2018-09-09T01:55:03.998Z,21.4
2018-09-09T01:56:01.647Z,21.4
2018-09-09T01:57:03.517Z,21.4
2018-09-09T01:57:59.128Z,21.4
2018-09-09T01:59:02.608Z,21.4
2018-09-09T02:00:01.408Z,21.4
2018-09-09T02:01:02.676Z,21.4
2018-09-09T02:02:14.483Z,21.4
2018-09-09T02:03:09.497Z,21.4
2018-09-09T02:04:07.160Z,21.4
2018-09-09T02:05:05.398Z,21.4
2018-09-09T02:06:08.250Z,21.4
2018-09-09T02:07:09.082Z,21.4
2018-09-09T02:08:08.176Z,21.4
2018-09-09T02:09:27.591Z,21.4
2018-09-09T02:10:26.057Z,21.4
2018-09-09T02:11:26.339Z,21.4
2018-09-09T02:12:25.856Z,21.4
2018-09-09T02:13:29.736Z,21.4
2018-09-09T02:14:40.956Z,21.4
2018-09-09T02:15:43.431Z,21.4
2018-09-09T02:16:44.970Z,21.4
2018-09-09T02:17:40.630Z,21.4
2018-09-09T02:18:59.305Z,21.4
2018-09-09T02:19:55.902Z,21.4
2018-09-09T02:20:54.250Z,21.4
2018-09-09T02:21:56.534Z,21.4
2018-09-09T02:22:54.893Z,21.4
2018-09-09T02:23:57.539Z,21.4
2018-09-09T02:24:55.426Z,21.4
2018-09-09T02:25:55.317Z,21.4
2018-09-09T02:26:50.499Z,21.4
2018-09-09T02:27:53.984Z,21.4
2018-09-09T02:28:54.423Z,21.4
2018-09-09T02:29:52.570Z,21.4
2018-09-09T02:31:04.639Z,21.4
2018-09-09T02:32:00.318Z,21.4
2018-09-09T02:33:06.206Z,21.4
2018-09-09T02:34:14.697Z,21.4
2018-09-09T02:35:10.429Z,21.4
2018-09-09T02:36:15.731Z,21.4
2018-09-09T02:37:12.269Z,21.4
2018-09-09T02:38:12.775Z,21.4
2018-09-09T02:39:11.036Z,21.4
2018-09-09T02:40:09.213Z,21.4
2018-09-09T02:41:06.930Z,21.4
2018-09-09T02:42:14.304Z,21.4
2018-09-09T02:43:26.282Z,21.4
2018-09-09T02:44:26.479Z,21.4
2018-09-09T02:45:24.850Z,21.4
2018-09-09T02:46:23.124Z,21.4
2018-09-09T02:47:30.272Z,21.4
2018-09-09T02:48:31.411Z,21.4
2018-09-09T02:49:30.165Z,21.3
2018-09-09T02:50:27.794Z,21.3
2018-09-09T02:51:27.300Z,21.3
2018-09-09T02:52:47.369Z,21.3
2018-09-09T02:53:51.285Z,21.3
2018-09-09T02:55:03.027Z,21.3
2018-09-09T02:56:00.514Z,21.3
2018-09-09T02:57:10.390Z,21.4
2018-09-09T02:58:07.874Z,21.3
2018-09-09T02:59:05.862Z,21.3
2018-09-09T03:00:03.702Z,21.3
2018-09-09T03:01:02.573Z,21.3
2018-09-09T03:02:00.667Z,21.3
2018-09-09T03:03:04.085Z,21.3
2018-09-09T03:04:03.956Z,21.3
2018-09-09T03:05:01.562Z,21.3
2018-09-09T03:05:57.124Z,21.3
2018-09-09T03:07:01.298Z,21.3
2018-09-09T03:07:59.576Z,21.3
2018-09-09T03:08:59.231Z,21.3
2018-09-09T03:10:00.118Z,21.3
2018-09-09T03:10:54.737Z,21.3
2018-09-09T03:12:17.897Z,21.3
2018-09-09T03:13:15.180Z,21.3
2018-09-09T03:14:22.369Z,21.3
2018-09-09T03:15:22.455Z,21.3
2018-09-09T03:16:22.075Z,21.3
2018-09-09T03:17:23.568Z,21.3
2018-09-09T03:18:21.146Z,21.3
2018-09-09T03:19:30.121Z,21.3
2018-09-09T03:20:29.709Z,21.3
2018-09-09T03:21:28.037Z,21.3
2018-09-09T03:22:27.233Z,21.3
2018-09-09T03:23:25.121Z,21.3
2018-09-09T03:24:41.930Z,21.3
2018-09-09T03:25:40.300Z,21.3
2018-09-09T03:26:38.085Z,21.3
2018-09-09T03:27:36.916Z,21.3
2018-09-09T03:28:37.685Z,21.3
2018-09-09T03:29:36.831Z,21.3
2018-09-09T03:30:40.763Z,21.2
2018-09-09T03:31:47.441Z,21.2
2018-09-09T03:32:52.790Z,21.3
2018-09-09T03:33:52.261Z,21.2
2018-09-09T03:34:48.573Z,21.2
2018-09-09T03:36:01.022Z,21.2
2018-09-09T03:36:55.694Z,21.2
2018-09-09T03:37:55.941Z,21.2
2018-09-09T03:38:56.970Z,21.2
2018-09-09T03:39:56.654Z,21.2
2018-09-09T03:40:55.223Z,21.2
2018-09-09T03:41:54.161Z,21.2
2018-09-09T03:42:52.584Z,21.2
2018-09-09T03:43:50.930Z,21.2
2018-09-09T03:44:47.033Z,21.2
2018-09-09T03:45:47.496Z,21.2
2018-09-09T03:46:45.359Z,21.2
2018-09-09T03:47:43.597Z,21.2
2018-09-09T03:48:45.619Z,21.2
2018-09-09T03:49:53.249Z,21.2
2018-09-09T03:50:50.656Z,21.2
2018-09-09T03:52:02.791Z,21.2
2018-09-09T03:52:58.551Z,21.1
2018-09-09T03:53:56.619Z,21.2
2018-09-09T03:54:59.199Z,21.1
2018-09-09T03:56:04.368Z,21.1
2018-09-09T03:57:05.815Z,21.1
2018-09-09T03:58:06.768Z,21.1
2018-09-09T03:59:05.634Z,21.1
2018-09-09T04:00:04.566Z,21.1
2018-09-09T04:01:03.422Z,21.1
2018-09-09T04:02:09.753Z,21.1
2018-09-09T04:03:20.488Z,21.1
2018-09-09T04:04:18.442Z,21.1
2018-09-09T04:05:16.278Z,21.1
2018-09-09T04:06:15.590Z,21.1
2018-09-09T04:07:13.120Z,21.1
2018-09-09T04:08:14.309Z,21.1
2018-09-09T04:09:13.421Z,21.1
2018-09-09T04:10:11.978Z,21.1
2018-09-09T04:11:15.568Z,21.1
2018-09-09T04:12:15.194Z,21.1
2018-09-09T04:13:16.456Z,21.1
2018-09-09T04:14:13.629Z,21.1
2018-09-09T04:15:24.357Z,21.1
2018-09-09T04:16:23.509Z,21.1
2018-09-09T04:17:21.390Z,21.1
2018-09-09T04:18:21.828Z,21.1
2018-09-09T04:19:20.373Z,21.1
2018-09-09T04:20:18.566Z,21.1
2018-09-09T04:21:17.057Z,21.1
2018-09-09T04:22:13.670Z,21.1
2018-09-09T04:23:14.120Z,21.1
2018-09-09T04:24:12.149Z,21.1
2018-09-09T04:25:10.930Z,21.1
2018-09-09T04:26:09.980Z,21.1
2018-09-09T04:27:08.890Z,21.1
2018-09-09T04:28:08.056Z,21.1
2018-09-09T04:29:19.400Z,21.1
2018-09-09T04:30:17.015Z,21.1
2018-09-09T04:31:16.243Z,21.1
2018-09-09T04:32:31.663Z,21.1
2018-09-09T04:33:26.257Z,21.1
2018-09-09T04:34:36.915Z,21.1
2018-09-09T04:35:35.574Z,21.1
2018-09-09T04:36:40.101Z,21.1
2018-09-09T04:37:38.076Z,21.1
2018-09-09T04:38:36.079Z,21.1
2018-09-09T04:39:34.471Z,21.1
2018-09-09T04:40:39.423Z,21.1
2018-09-09T04:41:38.306Z,21.1
2018-09-09T04:42:33.458Z,21.1
2018-09-09T04:43:47.464Z,21.1
2018-09-09T04:44:44.690Z,21.1
2018-09-09T04:45:42.568Z,21
2018-09-09T04:46:40.733Z,21
2018-09-09T04:47:40.995Z,21
2018-09-09T04:48:38.635Z,21
2018-09-09T04:49:38.649Z,21
2018-09-09T04:50:40.444Z,21
2018-09-09T04:51:45.964Z,21
2018-09-09T04:52:44.842Z,21.1
2018-09-09T04:53:44.807Z,21
2018-09-09T04:54:56.836Z,21
2018-09-09T04:55:51.920Z,21
2018-09-09T04:56:52.350Z,21
2018-09-09T04:57:50.700Z,21
2018-09-09T04:58:48.689Z,21
2018-09-09T04:59:49.953Z,21
2018-09-09T05:00:48.139Z,21
2018-09-09T05:01:51.341Z,21
2018-09-09T05:02:53.094Z,21
2018-09-09T05:03:57.337Z,21
2018-09-09T05:05:02.393Z,21
2018-09-09T05:06:01.034Z,21
2018-09-09T05:06:59.367Z,21
2018-09-09T05:07:58.231Z,21
2018-09-09T05:09:06.067Z,21
2018-09-09T05:10:05.466Z,21
2018-09-09T05:11:29.313Z,21
2018-09-09T05:12:24.827Z,21
2018-09-09T05:13:22.759Z,21
2018-09-09T05:14:23.447Z,21
2018-09-09T05:15:24.046Z,21
2018-09-09T05:16:21.980Z,21
2018-09-09T05:17:22.501Z,21
2018-09-09T05:18:20.928Z,21
2018-09-09T05:19:19.709Z,21
2018-09-09T05:20:24.935Z,21
2018-09-09T05:21:43.417Z,21
2018-09-09T05:22:45.725Z,21
2018-09-09T05:23:45.484Z,21
2018-09-09T05:24:47.688Z,21
2018-09-09T05:25:45.330Z,21
2018-09-09T05:26:43.624Z,21
2018-09-09T05:27:43.155Z,21
2018-09-09T05:28:40.714Z,21
2018-09-09T05:29:42.254Z,21
2018-09-09T05:30:40.959Z,21
2018-09-09T05:31:48.454Z,21
2018-09-09T05:32:45.355Z,21
2018-09-09T05:33:57.741Z,21
2018-09-09T05:34:54.546Z,21
2018-09-09T05:35:52.225Z,21
2018-09-09T05:36:50.491Z,21
2018-09-09T05:37:49.173Z,21
2018-09-09T05:38:48.106Z,21
2018-09-09T05:39:46.972Z,21
2018-09-09T05:40:50.477Z,21
2018-09-09T05:41:49.614Z,21
2018-09-09T05:42:47.275Z,21
2018-09-09T05:43:45.410Z,21
2018-09-09T05:44:42.379Z,21
2018-09-09T05:45:55.241Z,21
2018-09-09T05:46:53.923Z,21
2018-09-09T05:47:53.970Z,21
2018-09-09T05:48:51.658Z,21
2018-09-09T05:49:52.753Z,21
2018-09-09T05:50:57.709Z,21
2018-09-09T05:51:55.451Z,21
2018-09-09T05:52:53.207Z,21
2018-09-09T05:53:56.752Z,21
2018-09-09T05:54:55.231Z,21
2018-09-09T05:55:57.672Z,21
2018-09-09T05:56:58.406Z,21
2018-09-09T05:57:54.379Z,21
2018-09-09T05:59:08.999Z,21
2018-09-09T06:00:09.821Z,21
2018-09-09T06:01:08.071Z,21
2018-09-09T06:02:06.267Z,21
2018-09-09T06:03:05.892Z,21
2018-09-09T06:04:07.635Z,21
2018-09-09T06:05:08.839Z,21
2018-09-09T06:06:07.248Z,21
2018-09-09T06:07:05.561Z,21
2018-09-09T06:08:07.056Z,21
2018-09-09T06:09:06.240Z,21
2018-09-09T06:10:14.907Z,21
2018-09-09T06:11:09.815Z,21
2018-09-09T06:12:17.491Z,21
2018-09-09T06:13:34.718Z,21
2018-09-09T06:14:32.613Z,21
2018-09-09T06:15:36.912Z,21
2018-09-09T06:16:38.356Z,21
2018-09-09T06:17:36.818Z,21
2018-09-09T06:18:39.220Z,21
2018-09-09T06:19:37.841Z,21
2018-09-09T06:20:38.105Z,21
2018-09-09T06:21:37.602Z,21
2018-09-09T06:22:41.334Z,21
2018-09-09T06:23:37.387Z,21
2018-09-09T06:24:53.358Z,21
2018-09-09T06:25:51.817Z,21
2018-09-09T06:27:00.141Z,21
2018-09-09T06:27:58.157Z,21
2018-09-09T06:28:59.377Z,21
2018-09-09T06:29:54.930Z,21
2018-09-09T06:30:56.089Z,21
2018-09-09T06:31:56.870Z,21
2018-09-09T06:32:57.391Z,21
2018-09-09T06:33:55.349Z,21
2018-09-09T06:35:15.936Z,21
2018-09-09T06:36:02.409Z,21
2018-09-09T06:37:02.158Z,21
2018-09-09T06:38:02.159Z,21
2018-09-09T06:38:59.974Z,21
2018-09-09T06:39:58.603Z,21
2018-09-09T06:40:57.484Z,21
2018-09-09T06:41:55.512Z,21
2018-09-09T06:42:57.478Z,21
2018-09-09T06:43:53.595Z,21
2018-09-09T06:45:06.573Z,21
2018-09-09T06:46:03.684Z,21
2018-09-09T06:47:08.919Z,21.1
2018-09-09T06:48:06.654Z,21
2018-09-09T06:49:05.793Z,21
2018-09-09T06:50:10.949Z,21
2018-09-09T06:51:09.110Z,21
2018-09-09T06:52:10.386Z,21
2018-09-09T06:53:14.022Z,21.1
2018-09-09T06:54:10.409Z,21.1
2018-09-09T06:55:22.812Z,21.1
2018-09-09T06:56:20.058Z,21.1
2018-09-09T06:57:22.582Z,21.1
2018-09-09T06:58:25.534Z,21.1
2018-09-09T06:59:24.241Z,21.1
2018-09-09T07:00:26.545Z,21.1
2018-09-09T07:01:40.791Z,21.1
2018-09-09T07:02:38.382Z,21.1
2018-09-09T07:03:37.098Z,21.1
2018-09-09T07:04:40.208Z,21.1
2018-09-09T07:05:38.109Z,21.1
2018-09-09T07:06:36.380Z,21.1
2018-09-09T07:07:34.944Z,21.1
2018-09-09T07:08:37.193Z,21.1
2018-09-09T07:09:35.022Z,21.1
2018-09-09T07:10:34.415Z,21.1
2018-09-09T07:11:34.018Z,21.1
2018-09-09T07:12:50.536Z,21.1
2018-09-09T07:13:46.911Z,21.1
2018-09-09T07:14:47.909Z,21.1
2018-09-09T07:15:50.293Z,21.1
2018-09-09T07:16:47.516Z,21.1
2018-09-09T07:17:50.405Z,21.1
2018-09-09T07:18:51.310Z,21.1
2018-09-09T07:19:48.943Z,21.1
2018-09-09T07:20:50.000Z,21.1
2018-09-09T07:21:50.383Z,21.1
2018-09-09T07:22:47.456Z,21.1
2018-09-09T07:23:50.852Z,21.1
2018-09-09T07:24:52.113Z,21.1
2018-09-09T07:26:04.691Z,21.1
2018-09-09T07:27:02.197Z,21.1
2018-09-09T07:28:12.555Z,21.1
2018-09-09T07:29:13.170Z,21.1
2018-09-09T07:30:12.993Z,21.1
2018-09-09T07:31:10.447Z,21.1
2018-09-09T07:32:08.009Z,21.1
2018-09-09T07:33:05.651Z,21.1
2018-09-09T07:34:04.643Z,21.1
2018-09-09T07:35:02.550Z,21.1
2018-09-09T07:36:05.979Z,21.1
2018-09-09T07:37:07.720Z,21.2
2018-09-09T07:38:20.606Z,21.1
2018-09-09T07:39:38.671Z,21.2
2018-09-09T07:40:40.874Z,21.2
2018-09-09T07:41:40.844Z,21.2
2018-09-09T07:42:39.568Z,21.2
2018-09-09T07:43:37.967Z,21.2
2018-09-09T07:44:36.268Z,21.2
2018-09-09T07:45:35.144Z,21.2
2018-09-09T07:46:43.533Z,21.2
2018-09-09T07:47:51.887Z,21.2
2018-09-09T07:48:50.791Z,21.2
2018-09-09T07:49:50.374Z,21.2
2018-09-09T07:51:07.813Z,21.2
2018-09-09T07:52:14.606Z,21.2
2018-09-09T07:53:12.209Z,21.2
2018-09-09T07:54:09.894Z,21.2
2018-09-09T07:55:07.530Z,21.2
2018-09-09T07:56:05.052Z,21.2
2018-09-09T07:57:10.341Z,21.2
2018-09-09T07:58:11.676Z,21.2
2018-09-09T07:59:08.015Z,21.2
2018-09-09T08:00:12.132Z,21.2
2018-09-09T08:01:11.099Z,21.2
2018-09-09T08:02:09.906Z,21.2
2018-09-09T08:03:14.275Z,21.2
2018-09-09T08:04:26.215Z,21.2
2018-09-09T08:05:27.447Z,21.2
2018-09-09T08:06:25.304Z,21.2
2018-09-09T08:07:26.959Z,21.2
2018-09-09T08:08:26.490Z,21.2
2018-09-09T08:09:28.641Z,21.2
2018-09-09T08:10:28.394Z,21.2
2018-09-09T08:11:28.770Z,21.2
2018-09-09T08:12:27.330Z,21.2
2018-09-09T08:13:26.161Z,21.2
2018-09-09T08:14:25.121Z,21.2
2018-09-09T08:15:27.704Z,21.2
2018-09-09T08:16:23.941Z,21.2
2018-09-09T08:17:24.307Z,21.2
2018-09-09T08:18:26.227Z,21.2
2018-09-09T08:19:23.714Z,21.3
2018-09-09T08:20:14.575Z,21.3
2018-09-09T08:21:10.635Z,21.3
2018-09-09T08:22:12.783Z,21.3
2018-09-09T08:23:11.858Z,21.3
2018-09-09T08:24:12.484Z,21.3
2018-09-09T08:25:11.858Z,21.3
2018-09-09T08:26:13.820Z,21.3
2018-09-09T08:27:13.676Z,21.3
2018-09-09T08:28:11.685Z,21.3
2018-09-09T08:29:10.470Z,21.3
2018-09-09T08:30:09.453Z,21.3
2018-09-09T08:31:05.530Z,21.3
2018-09-09T08:32:20.466Z,21.3
2018-09-09T08:33:15.440Z,21.3
2018-09-09T08:34:23.834Z,21.3
2018-09-09T08:35:22.469Z,21.3
2018-09-09T08:36:30.165Z,21.3
2018-09-09T08:37:30.046Z,21.3
2018-09-09T08:38:42.378Z,21.3
2018-09-09T08:39:46.331Z,21.3
2018-09-09T08:40:43.987Z,21.3
2018-09-09T08:41:42.004Z,21.3
2018-09-09T08:42:41.517Z,21.3
2018-09-09T08:43:42.972Z,21.3
2018-09-09T08:44:55.710Z,21.3
2018-09-09T08:45:54.828Z,21.3
2018-09-09T08:47:13.452Z,21.4
2018-09-09T08:48:17.969Z,21.4
2018-09-09T08:49:16.590Z,21.4
2018-09-09T08:50:16.061Z,21.4
2018-09-09T08:51:10.922Z,21.4
2018-09-09T08:52:13.547Z,21.4
2018-09-09T08:53:11.560Z,21.4
2018-09-09T08:54:16.767Z,21.4
2018-09-09T08:55:11.993Z,21.4
2018-09-09T08:56:34.567Z,21.4
2018-09-09T08:57:25.632Z,21.4
2018-09-09T08:58:23.958Z,21.4
2018-09-09T08:59:21.871Z,21.4
2018-09-09T09:00:19.695Z,21.4
2018-09-09T09:01:24.099Z,21.4
2018-09-09T09:02:25.272Z,21.5
2018-09-09T09:03:24.695Z,21.5
2018-09-09T09:04:25.482Z,21.5
2018-09-09T09:05:24.712Z,21.5
2018-09-09T09:06:21.643Z,21.5
2018-09-09T09:07:40.085Z,21.5
2018-09-09T09:08:39.578Z,21.5
2018-09-09T09:09:40.532Z,21.5
2018-09-09T09:10:40.032Z,21.6
2018-09-09T09:11:38.305Z,21.5
2018-09-09T09:12:37.027Z,21.6
2018-09-09T09:13:35.647Z,21.6
2018-09-09T09:14:36.111Z,21.6
2018-09-09T09:15:34.013Z,21.6
2018-09-09T09:16:37.327Z,21.6
2018-09-09T09:17:38.913Z,21.6
2018-09-09T09:18:33.753Z,21.6
2018-09-09T09:19:35.566Z,21.6
2018-09-09T09:20:33.934Z,21.6
2018-09-09T09:21:40.078Z,21.7
2018-09-09T09:22:57.461Z,21.7
2018-09-09T09:23:53.078Z,21.7
2018-09-09T09:24:56.855Z,21.7
2018-09-09T09:26:01.071Z,21.7
2018-09-09T09:26:59.793Z,21.7
2018-09-09T09:28:00.756Z,21.7
2018-09-09T09:28:58.496Z,21.7
2018-09-09T09:29:57.231Z,21.7
2018-09-09T09:30:55.668Z,21.7
2018-09-09T09:31:55.076Z,21.7
2018-09-09T09:32:50.690Z,21.7
2018-09-09T09:33:48.998Z,21.7
2018-09-09T09:34:46.889Z,21.7
2018-09-09T09:35:47.013Z,21.8
2018-09-09T09:36:50.446Z,21.7
2018-09-09T09:38:02.374Z,21.7
2018-09-09T09:38:57.873Z,21.7
2018-09-09T09:40:03.420Z,21.7
2018-09-09T09:41:03.257Z,21.8
2018-09-09T09:42:04.220Z,21.7
2018-09-09T09:43:05.693Z,21.8
2018-09-09T09:44:04.063Z,21.7
2018-09-09T09:44:58.866Z,21.8
2018-09-09T09:46:00.803Z,21.8
2018-09-09T09:46:58.423Z,21.8
2018-09-09T09:47:54.327Z,21.8
2018-09-09T09:48:55.493Z,21.8
2018-09-09T09:50:11.252Z,21.8
2018-09-09T09:51:08.365Z,21.9
2018-09-09T09:52:19.598Z,21.9
2018-09-09T09:53:18.788Z,21.9
2018-09-09T09:54:19.054Z,21.9
2018-09-09T09:55:20.241Z,21.9
2018-09-09T09:56:19.766Z,22
2018-09-09T09:57:18.786Z,22
2018-09-09T09:58:17.914Z,22
2018-09-09T09:59:16.554Z,22
2018-09-09T10:00:14.606Z,22
2018-09-09T10:01:09.145Z,22
2018-09-09T10:02:23.213Z,22
2018-09-09T10:03:21.379Z,22.1
2018-09-09T10:04:20.829Z,22.1
2018-09-09T10:05:30.990Z,22.1
2018-09-09T10:06:30.112Z,22.1
2018-09-09T10:07:29.024Z,22.1
2018-09-09T10:08:31.730Z,22.2
2018-09-09T10:09:31.456Z,22.2
2018-09-09T10:10:29.875Z,22.2
2018-09-09T10:11:29.388Z,22.2
2018-09-09T10:12:27.023Z,22.2
2018-09-09T10:13:26.360Z,22.2
2018-09-09T10:14:26.155Z,22.2
2018-09-09T10:15:39.926Z,22.3
2018-09-09T10:16:44.730Z,22.3
2018-09-09T10:17:45.337Z,22.3
2018-09-09T10:18:43.321Z,22.3
2018-09-09T10:19:40.968Z,22.3
2018-09-09T10:20:39.234Z,22.3
2018-09-09T10:21:36.677Z,22.3
2018-09-09T10:22:34.805Z,22.4
2018-09-09T10:23:38.513Z,22.3
2018-09-09T10:24:36.692Z,22.4
2018-09-09T10:25:35.576Z,22.4
2018-09-09T10:26:35.477Z,22.4
2018-09-09T10:27:33.353Z,22.4
2018-09-09T10:28:31.082Z,22.4
2018-09-09T10:29:32.519Z,22.4
2018-09-09T10:30:45.404Z,22.5
2018-09-09T10:31:42.127Z,22.5
2018-09-09T10:32:40.386Z,22.5
2018-09-09T10:33:38.789Z,22.5
2018-09-09T10:34:36.693Z,22.5
2018-09-09T10:35:35.314Z,22.6
2018-09-09T10:36:34.951Z,22.6
2018-09-09T10:37:34.989Z,22.6
2018-09-09T10:38:34.493Z,22.6
2018-09-09T10:39:34.194Z,22.6
2018-09-09T10:40:34.227Z,22.6
2018-09-09T10:41:32.217Z,22.6
2018-09-09T10:42:44.281Z,22.7
2018-09-09T10:43:42.276Z,22.7
2018-09-09T10:44:42.745Z,22.7
2018-09-09T10:45:40.886Z,22.7
2018-09-09T10:46:38.582Z,22.7
2018-09-09T10:47:37.705Z,22.7
2018-09-09T10:48:35.362Z,22.8
2018-09-09T10:49:35.967Z,22.8
2018-09-09T10:50:35.062Z,22.7
2018-09-09T10:51:29.538Z,22.8
2018-09-09T10:52:28.244Z,22.8
2018-09-09T10:53:26.492Z,22.8
2018-09-09T10:54:38.666Z,22.8
2018-09-09T10:55:37.659Z,22.8
2018-09-09T10:56:38.069Z,22.8
2018-09-09T10:57:38.296Z,22.9
2018-09-09T10:58:39.916Z,22.9
2018-09-09T10:59:37.821Z,22.9
2018-09-09T11:00:41.279Z,22.9
2018-09-09T11:01:40.297Z,22.9
2018-09-09T11:02:42.874Z,22.9
2018-09-09T11:03:40.232Z,22.9
2018-09-09T11:04:54.928Z,22.9
2018-09-09T11:05:50.987Z,23
2018-09-09T11:06:50.397Z,22.9
2018-09-09T11:07:54.531Z,23
2018-09-09T11:08:56.117Z,23
2018-09-09T11:10:01.528Z,23
2018-09-09T11:10:59.582Z,23
2018-09-09T11:11:57.249Z,23
2018-09-09T11:13:04.089Z,23
2018-09-09T11:14:02.076Z,23
2018-09-09T11:14:56.835Z,23
2018-09-09T11:15:54.837Z,23
2018-09-09T11:17:06.608Z,23
2018-09-09T11:18:03.684Z,23
2018-09-09T11:19:02.550Z,23
2018-09-09T11:20:02.400Z,23
2018-09-09T11:21:00.556Z,23.1
2018-09-09T11:21:58.476Z,23.1
2018-09-09T11:23:00.599Z,23.1
2018-09-09T11:24:01.044Z,23.1
2018-09-09T11:24:57.380Z,23
2018-09-09T11:25:59.050Z,23
2018-09-09T11:26:57.501Z,23.1
2018-09-09T11:27:54.459Z,23.1
2018-09-09T11:29:11.170Z,23.1
2018-09-09T11:30:07.905Z,23.1
2018-09-09T11:31:09.405Z,23.1
2018-09-09T11:32:10.768Z,23.1
2018-09-09T11:33:09.945Z,23.1
2018-09-09T11:34:07.709Z,23.1
2018-09-09T11:35:09.303Z,23.2
2018-09-09T11:36:10.260Z,23.1
2018-09-09T11:37:11.450Z,23.1
2018-09-09T11:38:09.415Z,23.1
2018-09-09T11:39:07.071Z,23.1
2018-09-09T11:40:03.323Z,23.1
2018-09-09T11:41:18.303Z,23.2
2018-09-09T11:42:13.229Z,23.2
2018-09-09T11:43:19.291Z,23.2
2018-09-09T11:44:18.862Z,23.2
2018-09-09T11:45:21.096Z,23.2
2018-09-09T11:46:19.025Z,23.2
2018-09-09T11:47:20.658Z,23.2
2018-09-09T11:48:19.589Z,23.2
2018-09-09T11:49:17.854Z,23.2
2018-09-09T11:50:19.235Z,23.2
2018-09-09T11:51:15.986Z,23.3
2018-09-09T11:52:31.050Z,23.3
2018-09-09T11:53:25.804Z,23.3
2018-09-09T11:54:24.001Z,23.3
2018-09-09T11:55:23.354Z,23.3
2018-09-09T11:56:21.958Z,23.3
2018-09-09T11:57:21.045Z,23.3
2018-09-09T11:58:22.751Z,23.3
2018-09-09T11:59:21.593Z,23.3
2018-09-09T12:00:23.219Z,23.3
2018-09-09T12:01:23.770Z,23.4
2018-09-09T12:02:21.306Z,23.3
2018-09-09T12:03:34.029Z,23.4
2018-09-09T12:04:32.519Z,23.4
2018-09-09T12:05:35.892Z,23.4
2018-09-09T12:06:33.626Z,23.4
2018-09-09T12:07:35.289Z,23.4
2018-09-09T12:08:33.462Z,23.4
2018-09-09T12:09:31.013Z,23.4
2018-09-09T12:10:30.578Z,23.4
2018-09-09T12:11:28.931Z,23.4
2018-09-09T12:12:27.332Z,23.4
2018-09-09T12:13:26.228Z,23.4
2018-09-09T12:14:24.811Z,23.4
2018-09-09T12:15:22.355Z,23.4
2018-09-09T12:16:24.694Z,23.4
2018-09-09T12:17:37.209Z,23.5
2018-09-09T12:18:34.693Z,23.4
2018-09-09T12:19:32.435Z,23.4
2018-09-09T12:20:31.923Z,23.4
2018-09-09T12:21:33.009Z,23.5
2018-09-09T12:22:30.831Z,23.4
2018-09-09T12:23:29.630Z,23.5
2018-09-09T12:24:26.182Z,23.5
2018-09-09T12:25:30.662Z,23.5
2018-09-09T12:26:42.887Z,23.5
2018-09-09T12:27:48.138Z,23.5
2018-09-09T12:28:58.105Z,23.5
2018-09-09T12:29:59.820Z,23.5
2018-09-09T12:30:57.610Z,23.5
2018-09-09T12:31:57.246Z,23.5
2018-09-09T12:33:00.445Z,23.5
2018-09-09T12:33:57.565Z,23.5
2018-09-09T12:35:09.312Z,23.5
2018-09-09T12:36:06.694Z,23.5
2018-09-09T12:37:06.479Z,23.5
2018-09-09T12:38:11.882Z,23.5
2018-09-09T12:39:15.738Z,23.5
2018-09-09T12:40:12.131Z,23.5
2018-09-09T12:41:15.219Z,23.5
2018-09-09T12:42:19.192Z,23.5
2018-09-09T12:43:17.486Z,23.5
2018-09-09T12:44:21.429Z,23.5
2018-09-09T12:45:24.820Z,23.5
2018-09-09T12:46:24.150Z,23.5
2018-09-09T12:47:20.025Z,23.6
2018-09-09T12:48:17.501Z,23.5
2018-09-09T12:49:34.489Z,23.5
2018-09-09T12:50:37.518Z,23.5
2018-09-09T12:51:36.459Z,23.5
2018-09-09T12:52:44.540Z,23.6
2018-09-09T12:53:42.718Z,23.6
2018-09-09T12:54:41.025Z,23.6
2018-09-09T12:55:38.897Z,23.6
2018-09-09T12:56:40.697Z,23.6
2018-09-09T12:57:38.428Z,23.6
2018-09-09T12:58:36.730Z,23.6
2018-09-09T13:00:06.889Z,23.6
2018-09-09T13:00:46.789Z,23.6
2018-09-09T13:01:44.711Z,23.6
2018-09-09T13:02:42.927Z,23.6
2018-09-09T13:03:41.857Z,23.6
2018-09-09T13:04:43.188Z,23.6
2018-09-09T13:05:41.965Z,23.6
2018-09-09T13:06:39.464Z,23.6
2018-09-09T13:07:37.559Z,23.6
2018-09-09T13:08:39.768Z,23.6
2018-09-09T13:09:36.079Z,23.6
2018-09-09T13:10:50.119Z,23.6
2018-09-09T13:11:44.532Z,23.6
2018-09-09T13:12:43.913Z,23.6
2018-09-09T13:13:42.168Z,23.6
2018-09-09T13:14:42.379Z,23.6
2018-09-09T13:15:45.708Z,23.6
2018-09-09T13:16:40.403Z,23.6
2018-09-09T13:17:41.327Z,23.6
2018-09-09T13:18:40.682Z,23.6
2018-09-09T13:19:39.674Z,23.6
2018-09-09T13:20:36.877Z,23.6
2018-09-09T13:21:35.596Z,23.6
2018-09-09T13:22:45.490Z,23.6
2018-09-09T13:23:42.291Z,23.6
2018-09-09T13:24:46.340Z,23.6
2018-09-09T13:25:44.182Z,23.6
2018-09-09T13:26:45.322Z,23.6
2018-09-09T13:27:49.121Z,23.6
2018-09-09T13:28:47.155Z,23.6
2018-09-09T13:29:47.479Z,23.6
2018-09-09T13:30:45.625Z,23.6
2018-09-09T13:31:44.154Z,23.5
2018-09-09T13:32:58.251Z,23.5
2018-09-09T13:33:59.327Z,23.6
2018-09-09T13:34:57.002Z,23.6
2018-09-09T13:36:00.991Z,23.5
2018-09-09T13:37:00.950Z,23.5
2018-09-09T13:37:58.353Z,23.5
2018-09-09T13:38:56.021Z,23.5
2018-09-09T13:39:58.552Z,23.5
2018-09-09T13:40:55.416Z,23.5
2018-09-09T13:41:57.591Z,23.5
2018-09-09T13:42:54.418Z,23.5
2018-09-09T13:43:54.504Z,23.5